createdAt,value
2018-01-26T00:00:09.795Z,49.3
2018-01-26T00:01:11.135Z,49.3
2018-01-26T00:02:12.733Z,49.5
2018-01-26T00:03:14.627Z,49.4
2018-01-26T00:04:15.970Z,49.2
2018-01-26T00:05:17.588Z,49.2
2018-01-26T00:06:18.909Z,49.1
2018-01-26T00:07:19.974Z,49.1
2018-01-26T00:08:21.870Z,49.2
2018-01-26T00:09:23.193Z,49.2
2018-01-26T00:10:25.101Z,49.1
2018-01-26T00:11:26.985Z,49.2
2018-01-26T00:12:28.304Z,49.1
2018-01-26T00:13:30.202Z,49.4
2018-01-26T00:14:31.820Z,49.1
2018-01-26T00:15:33.717Z,49.2
2018-01-26T00:16:35.335Z,49.3
2018-01-26T00:17:36.932Z,49.4
2018-01-26T00:18:38.828Z,49.4
2018-01-26T00:19:40.432Z,49.1
2018-01-26T00:20:42.045Z,49.3
2018-01-26T00:21:43.385Z,49
2018-01-26T00:22:45.009Z,49.2
2018-01-26T00:23:46.324Z,49.2
2018-01-26T00:24:47.944Z,49.4
2018-01-26T00:25:49.563Z,49.1
2018-01-26T00:26:51.162Z,49.2
2018-01-26T00:27:52.484Z,49.1
2018-01-26T00:28:54.379Z,49.2
2018-01-26T00:29:55.974Z,49.3
2018-01-26T00:30:57.872Z,49.3
2018-01-26T00:31:59.191Z,49.3
2018-01-26T00:33:00.809Z,49.2
2018-01-26T00:34:02.152Z,49.5
2018-01-26T00:35:03.773Z,49.5
2018-01-26T00:36:05.110Z,49.3
2018-01-26T00:37:06.762Z,49
2018-01-26T00:38:08.656Z,49.5
2018-01-26T00:39:09.998Z,49.5
2018-01-26T00:40:11.318Z,49.5
2018-01-26T00:41:13.214Z,49.2
2018-01-26T00:42:14.258Z,49.1
2018-01-26T00:43:15.876Z,49.5
2018-01-26T00:44:17.775Z,49.2
2018-01-26T00:45:18.821Z,49.1
2018-01-26T00:46:20.141Z,49.1
2018-01-26T00:47:21.461Z,48.7
2018-01-26T00:48:22.515Z,49
2018-01-26T00:49:24.169Z,49.4
2018-01-26T00:50:25.487Z,49.1
2018-01-26T00:51:26.808Z,49.1
2018-01-26T00:52:28.426Z,49.7
2018-01-26T00:53:29.495Z,49.1
2018-01-26T00:54:30.813Z,49.5
2018-01-26T00:55:32.166Z,49.3
2018-01-26T00:56:34.061Z,49.5
2018-01-26T00:57:35.383Z,49.4
2018-01-26T00:58:36.703Z,48.7
2018-01-26T00:59:38.319Z,48.7
2018-01-26T01:00:39.663Z,48.7
2018-01-26T01:01:41.281Z,48.7
2018-01-26T01:02:42.601Z,48.7
2018-01-26T01:03:43.993Z,49
2018-01-26T01:04:45.611Z,48.7
2018-01-26T01:05:47.231Z,48.8
2018-01-26T01:06:49.139Z,49.4
2018-01-26T01:07:51.026Z,49.4
2018-01-26T01:08:52.624Z,49.4
2018-01-26T01:09:54.242Z,48.6
2018-01-26T01:10:55.842Z,48.7
2018-01-26T01:11:57.461Z,48.8
2018-01-26T01:12:59.082Z,48.6
2018-01-26T01:14:00.126Z,48.7
2018-01-26T01:15:02.019Z,48.8
2018-01-26T01:16:03.341Z,48.8
2018-01-26T01:17:04.960Z,48.8
2018-01-26T01:18:14.288Z,48.8
2018-01-26T01:19:15.909Z,48.8
2018-01-26T01:20:17.529Z,49
2018-01-26T01:21:19.428Z,48.8
2018-01-26T01:22:20.493Z,49
2018-01-26T01:23:21.818Z,49.1
2018-01-26T01:24:23.160Z,49
2018-01-26T01:25:24.781Z,49.3
2018-01-26T01:26:26.400Z,49.2
2018-01-26T01:27:28.018Z,49
2018-01-26T01:28:29.635Z,48.9
2018-01-26T01:29:31.255Z,49.2
2018-01-26T01:30:32.878Z,48.8
2018-01-26T01:31:34.203Z,49.1
2018-01-26T01:32:36.101Z,49
2018-01-26T01:33:37.998Z,49
2018-01-26T01:34:39.042Z,48.8
2018-01-26T01:35:40.661Z,48.9
2018-01-26T01:36:42.564Z,48.8
2018-01-26T01:37:44.460Z,48.8
2018-01-26T01:38:45.804Z,49
2018-01-26T01:39:47.701Z,49
2018-01-26T01:40:49.320Z,49
2018-01-26T01:42:00.093Z,48.8
2018-01-26T01:43:01.416Z,49
2018-01-26T01:44:03.035Z,48.9
2018-01-26T01:45:04.656Z,48.8
2018-01-26T01:46:06.286Z,48.9
2018-01-26T01:47:07.330Z,48.8
2018-01-26T01:48:08.649Z,48.8
2018-01-26T01:49:09.715Z,49.1
2018-01-26T01:50:11.034Z,48.8
2018-01-26T01:51:12.094Z,48.9
2018-01-26T01:52:13.431Z,49
2018-01-26T01:53:14.773Z,48.9
2018-01-26T01:54:16.413Z,49
2018-01-26T01:55:17.736Z,48.8
2018-01-26T01:56:19.077Z,48.8
2018-01-26T01:57:20.413Z,49.1
2018-01-26T01:58:22.308Z,48.8
2018-01-26T01:59:23.633Z,48.8
2018-01-26T02:00:24.952Z,49
2018-01-26T02:01:26.293Z,48.8
2018-01-26T02:02:27.637Z,49
2018-01-26T02:03:29.287Z,48.9
2018-01-26T02:04:30.906Z,48.8
2018-01-26T02:05:32.269Z,48.8
2018-01-26T02:06:33.577Z,48.8
2018-01-26T02:07:35.198Z,48.8
2018-01-26T02:08:37.095Z,49
2018-01-26T02:09:38.995Z,48.9
2018-01-26T02:10:40.317Z,48.9
2018-01-26T02:11:42.213Z,48.9
2018-01-26T02:12:43.556Z,48.9
2018-01-26T02:13:44.618Z,48.9
2018-01-26T02:14:46.238Z,48.9
2018-01-26T02:15:47.559Z,48.9
2018-01-26T02:16:48.884Z,48.9
2018-01-26T02:17:50.821Z,48.9
2018-01-26T02:18:51.863Z,48.9
2018-01-26T02:19:53.212Z,48.9
2018-01-26T02:20:54.553Z,48.9
2018-01-26T02:21:55.889Z,48.8
2018-01-26T02:22:57.787Z,49
2018-01-26T02:23:58.848Z,48.9
2018-01-26T02:25:00.469Z,48.9
2018-01-26T02:26:02.367Z,49.1
2018-01-26T02:27:03.985Z,49.2
2018-01-26T02:28:05.606Z,49
2018-01-26T02:29:07.269Z,48.9
2018-01-26T02:30:09.152Z,48.9
2018-01-26T02:31:10.775Z,48.9
2018-01-26T02:32:12.391Z,49.1
2018-01-26T02:33:14.009Z,48.9
2018-01-26T02:34:15.904Z,48.9
2018-01-26T02:35:17.501Z,49
2018-01-26T02:36:19.398Z,48.9
2018-01-26T02:37:20.996Z,49
2018-01-26T02:38:22.594Z,49.2
2018-01-26T02:39:24.201Z,48.9
2018-01-26T02:40:25.523Z,49.2
2018-01-26T02:41:27.163Z,48.8
2018-01-26T02:42:28.500Z,49.1
2018-01-26T02:43:30.098Z,49.2
2018-01-26T02:44:31.438Z,48.9
2018-01-26T02:45:33.037Z,49
2018-01-26T02:46:34.380Z,48.9
2018-01-26T02:47:35.792Z,49
2018-01-26T02:48:37.414Z,49.1
2018-01-26T02:49:38.743Z,49
2018-01-26T02:50:40.062Z,48.9
2018-01-26T02:51:41.384Z,49
2018-01-26T02:52:43.282Z,49.3
2018-01-26T02:53:45.177Z,48.9
2018-01-26T02:54:46.798Z,49.2
2018-01-26T02:55:48.417Z,48.6
2018-01-26T02:56:50.040Z,49.2
2018-01-26T02:57:51.936Z,49.2
2018-01-26T02:58:53.257Z,49.1
2018-01-26T02:59:54.874Z,48.5
2018-01-26T03:00:56.770Z,48.7
2018-01-26T03:01:58.367Z,49
2018-01-26T03:03:00.265Z,49.1
2018-01-26T03:04:01.886Z,48.5
2018-01-26T03:05:03.206Z,49.1
2018-01-26T03:06:04.550Z,48.5
2018-01-26T03:07:06.167Z,48.6
2018-01-26T03:08:07.208Z,48.6
2018-01-26T03:09:08.543Z,49.2
2018-01-26T03:10:10.160Z,48.5
2018-01-26T03:11:12.063Z,48.6
2018-01-26T03:12:13.953Z,48.6
2018-01-26T03:13:15.573Z,48.7
2018-01-26T03:14:17.230Z,48.7
2018-01-26T03:15:18.550Z,48.9
2018-01-26T03:16:20.169Z,49
2018-01-26T03:17:22.068Z,48.5
2018-01-26T03:18:23.108Z,48.6
2018-01-26T03:19:25.007Z,48.5
2018-01-26T03:20:26.062Z,48.6
2018-01-26T03:21:27.116Z,48.6
2018-01-26T03:22:28.742Z,48.6
2018-01-26T03:23:30.116Z,48.6
2018-01-26T03:24:31.710Z,48.6
2018-01-26T03:25:33.607Z,48.8
2018-01-26T03:26:35.208Z,48.6
2018-01-26T03:27:36.530Z,48.5
2018-01-26T03:28:38.427Z,48.6
2018-01-26T03:29:40.320Z,48.6
2018-01-26T03:30:41.921Z,48.8
2018-01-26T03:31:43.241Z,49
2018-01-26T03:32:45.139Z,49.1
2018-01-26T03:33:46.468Z,48.7
2018-01-26T03:34:48.370Z,48.5
2018-01-26T03:35:49.991Z,48.7
2018-01-26T03:36:51.330Z,49.1
2018-01-26T03:37:53.226Z,49
2018-01-26T03:38:55.120Z,48.6
2018-01-26T03:39:56.761Z,48.6
2018-01-26T03:40:58.378Z,48.7
2018-01-26T03:41:59.699Z,48.7
2018-01-26T03:43:01.595Z,48.6
2018-01-26T03:44:03.216Z,48.7
2018-01-26T03:45:05.123Z,48.6
2018-01-26T03:46:06.465Z,48.7
2018-01-26T03:47:07.230Z,48.5
2018-01-26T03:48:08.830Z,49
2018-01-26T03:49:09.877Z,49.2
2018-01-26T03:50:11.506Z,48.9
2018-01-26T03:51:13.438Z,48.6
2018-01-26T03:52:15.338Z,48.7
2018-01-26T03:53:16.975Z,48.7
2018-01-26T03:54:18.595Z,48.7
2018-01-26T03:55:19.934Z,48.6
2018-01-26T03:56:21.257Z,48.7
2018-01-26T03:57:22.877Z,48.6
2018-01-26T03:58:24.497Z,48.7
2018-01-26T03:59:26.115Z,49.3
2018-01-26T04:00:27.159Z,48.7
2018-01-26T04:01:28.781Z,48.7
2018-01-26T04:02:30.431Z,48.6
2018-01-26T04:03:32.049Z,49.3
2018-01-26T04:04:33.947Z,48.8
2018-01-26T04:05:35.844Z,48.8
2018-01-26T04:06:37.464Z,48.8
2018-01-26T04:07:38.504Z,49.2
2018-01-26T04:08:40.124Z,48.6
2018-01-26T04:09:41.442Z,48.6
2018-01-26T04:10:43.064Z,48.7
2018-01-26T04:11:44.961Z,48.7
2018-01-26T04:12:46.582Z,48.8
2018-01-26T04:13:47.620Z,48.6
2018-01-26T04:14:48.963Z,49
2018-01-26T04:15:50.861Z,48.7
2018-01-26T04:16:52.482Z,48.7
2018-01-26T04:17:54.101Z,48.9
2018-01-26T04:18:55.145Z,48.9
2018-01-26T04:19:56.765Z,49
2018-01-26T04:20:58.660Z,49
2018-01-26T04:22:00.006Z,48.8
2018-01-26T04:23:01.345Z,49
2018-01-26T04:24:03.243Z,48.9
2018-01-26T04:25:04.562Z,48.8
2018-01-26T04:26:06.496Z,48.8
2018-01-26T04:27:07.260Z,48.8
2018-01-26T04:28:08.887Z,49.3
2018-01-26T04:29:10.783Z,49.4
2018-01-26T04:30:12.404Z,48.8
2018-01-26T04:31:13.744Z,48.7
2018-01-26T04:32:15.362Z,48.7
2018-01-26T04:33:16.682Z,48.7
2018-01-26T04:34:18.276Z,48.8
2018-01-26T04:35:20.171Z,48.7
2018-01-26T04:36:21.771Z,48.7
2018-01-26T04:37:23.112Z,48.7
2018-01-26T04:38:25.007Z,49
2018-01-26T04:39:26.901Z,48.7
2018-01-26T04:40:28.244Z,48.6
2018-01-26T04:41:29.587Z,49
2018-01-26T04:42:30.968Z,48.7
2018-01-26T04:43:32.591Z,48.9
2018-01-26T04:44:34.504Z,48.8
2018-01-26T04:45:35.547Z,49
2018-01-26T04:46:37.442Z,48.9
2018-01-26T04:47:39.064Z,48.7
2018-01-26T04:48:40.678Z,48.7
2018-01-26T04:49:42.002Z,49
2018-01-26T04:50:43.899Z,48.6
2018-01-26T04:51:45.521Z,48.9
2018-01-26T04:52:46.566Z,48.7
2018-01-26T04:53:48.186Z,49
2018-01-26T04:54:49.554Z,49
2018-01-26T04:55:51.449Z,48.9
2018-01-26T04:56:53.077Z,48.7
2018-01-26T04:57:54.676Z,49
2018-01-26T04:58:56.298Z,48.7
2018-01-26T04:59:57.913Z,48.8
2018-01-26T05:00:59.252Z,48.7
2018-01-26T05:02:01.148Z,49.2
2018-01-26T05:03:03.048Z,48.8
2018-01-26T05:04:04.366Z,48.6
2018-01-26T05:05:05.983Z,49
2018-01-26T05:06:07.304Z,49
2018-01-26T05:07:08.940Z,49
2018-01-26T05:08:10.536Z,48.7
2018-01-26T05:09:12.442Z,49
2018-01-26T05:10:14.057Z,48.8
2018-01-26T05:11:15.955Z,48.8
2018-01-26T05:12:17.852Z,49.1
2018-01-26T05:13:19.747Z,48.9
2018-01-26T05:14:21.645Z,48.7
2018-01-26T05:15:23.545Z,48.9
2018-01-26T05:16:25.163Z,48.9
2018-01-26T05:17:27.062Z,48.7
2018-01-26T05:18:28.680Z,49
2018-01-26T05:19:30.602Z,48.8
2018-01-26T05:20:31.940Z,48.7
2018-01-26T05:21:33.010Z,48.8
2018-01-26T05:22:34.334Z,48.6
2018-01-26T05:23:35.931Z,48.7
2018-01-26T05:24:37.569Z,48.7
2018-01-26T05:25:38.909Z,48.6
2018-01-26T05:26:40.230Z,48.7
2018-01-26T05:27:41.609Z,48.7
2018-01-26T05:28:42.952Z,49
2018-01-26T05:29:44.274Z,48.8
2018-01-26T05:30:46.172Z,48.7
2018-01-26T05:31:48.067Z,48.8
2018-01-26T05:32:49.389Z,48.8
2018-01-26T05:33:50.987Z,48.8
2018-01-26T05:34:52.328Z,48.6
2018-01-26T05:35:53.926Z,48.5
2018-01-26T05:36:55.289Z,48.6
2018-01-26T05:37:56.886Z,48.6
2018-01-26T05:38:58.501Z,48.5
2018-01-26T05:40:00.399Z,48.8
2018-01-26T05:41:02.001Z,48.5
2018-01-26T05:42:03.595Z,48.4
2018-01-26T05:43:04.919Z,48.5
2018-01-26T05:44:06.816Z,48.7
2018-01-26T05:45:07.861Z,48.7
2018-01-26T05:46:09.479Z,48.7
2018-01-26T05:47:10.800Z,48.6
2018-01-26T05:48:12.697Z,48.5
2018-01-26T05:49:14.597Z,48.4
2018-01-26T05:50:16.493Z,48.5
2018-01-26T05:51:17.830Z,48.7
2018-01-26T05:52:18.892Z,48.7
2018-01-26T05:53:20.787Z,48.4
2018-01-26T05:54:22.115Z,48.2
2018-01-26T05:55:23.726Z,48.3
2018-01-26T05:56:25.344Z,48.3
2018-01-26T05:57:26.685Z,48.2
2018-01-26T05:58:28.304Z,47.8
2018-01-26T05:59:30.201Z,47.9
2018-01-26T06:00:31.821Z,48
2018-01-26T06:01:33.441Z,48
2018-01-26T06:02:34.760Z,47.9
2018-01-26T06:03:36.114Z,48.1
2018-01-26T06:04:37.435Z,48.2
2018-01-26T06:05:39.059Z,48.1
2018-01-26T06:06:40.451Z,48.2
2018-01-26T06:07:42.071Z,48.3
2018-01-26T06:08:43.969Z,48.3
2018-01-26T06:09:45.596Z,48.5
2018-01-26T06:10:47.197Z,48.4
2018-01-26T06:11:48.832Z,48.3
2018-01-26T06:12:50.477Z,48.3
2018-01-26T06:13:51.797Z,48.2
2018-01-26T06:15:50.914Z,48.2
2018-01-26T06:16:52.235Z,48
2018-01-26T06:17:53.576Z,48
2018-01-26T06:18:55.174Z,48
2018-01-26T06:19:56.239Z,48.3
2018-01-26T06:20:57.869Z,48
2018-01-26T06:21:59.482Z,48
2018-01-26T06:23:01.103Z,48
2018-01-26T06:24:02.420Z,48.3
2018-01-26T06:25:03.465Z,47.7
2018-01-26T06:26:05.085Z,47.6
2018-01-26T06:27:06.706Z,48.5
2018-01-26T06:28:08.352Z,47.6
2018-01-26T06:29:09.389Z,47.8
2018-01-26T06:30:10.454Z,48.2
2018-01-26T06:31:12.055Z,48.3
2018-01-26T06:32:13.738Z,47.8
2018-01-26T06:33:15.060Z,48.3
2018-01-26T06:34:16.680Z,47.8
2018-01-26T06:35:18.590Z,47.7
2018-01-26T06:36:20.471Z,47.7
2018-01-26T06:37:22.086Z,48.1
2018-01-26T06:38:23.458Z,47.9
2018-01-26T06:39:25.074Z,48.3
2018-01-26T06:40:26.693Z,47.8
2018-01-26T06:41:27.739Z,47.8
2018-01-26T06:42:29.359Z,47.7
2018-01-26T06:43:30.978Z,47.8
2018-01-26T06:44:32.336Z,48.6
2018-01-26T06:45:34.231Z,47.8
2018-01-26T06:46:35.832Z,47.8
2018-01-26T06:47:37.455Z,48.6
2018-01-26T06:48:39.101Z,47.8
2018-01-26T06:49:40.724Z,48.3
2018-01-26T06:50:42.620Z,47.8
2018-01-26T06:51:43.961Z,48.6
2018-01-26T06:52:45.595Z,48.1
2018-01-26T06:53:47.213Z,47.7
2018-01-26T06:54:48.831Z,48.5
2018-01-26T06:55:50.450Z,48.5
2018-01-26T06:56:51.844Z,47.7
2018-01-26T06:57:53.157Z,48.2
2018-01-26T06:58:54.779Z,47.8
2018-01-26T06:59:55.848Z,48.3
2018-01-26T07:00:57.748Z,48.3
2018-01-26T07:01:59.092Z,48.2
2018-01-26T07:03:00.712Z,48.1
2018-01-26T07:04:02.059Z,48.1
2018-01-26T07:05:03.390Z,48.2
2018-01-26T07:06:05.016Z,48
2018-01-26T07:07:06.640Z,48
2018-01-26T07:08:07.968Z,48.1
2018-01-26T07:09:09.590Z,48.3
2018-01-26T07:10:10.941Z,48.1
2018-01-26T07:11:12.567Z,48.3
2018-01-26T07:12:14.466Z,48.4
2018-01-26T07:13:16.370Z,48
2018-01-26T07:14:17.699Z,48
2018-01-26T07:15:19.022Z,48.6
2018-01-26T07:16:20.645Z,48.3
2018-01-26T07:17:22.548Z,48.3
2018-01-26T07:18:24.177Z,48.3
2018-01-26T07:19:25.800Z,48.3
2018-01-26T07:20:27.425Z,48.3
2018-01-26T07:21:29.042Z,48.4
2018-01-26T07:22:30.665Z,48.2
2018-01-26T07:23:32.565Z,48.4
2018-01-26T07:24:34.468Z,48.4
2018-01-26T07:25:36.366Z,48.6
2018-01-26T07:26:37.992Z,48.3
2018-01-26T07:27:39.336Z,48.4
2018-01-26T07:28:40.679Z,48.4
2018-01-26T07:29:42.020Z,48.6
2018-01-26T07:30:43.642Z,48.7
2018-01-26T07:31:44.962Z,48.6
2018-01-26T07:32:46.307Z,48.7
2018-01-26T07:33:47.650Z,48.4
2018-01-26T07:34:49.268Z,48.5
2018-01-26T07:35:50.888Z,48.5
2018-01-26T07:36:52.791Z,48.4
2018-01-26T07:37:54.411Z,48.7
2018-01-26T07:38:55.753Z,48.4
2018-01-26T07:39:57.401Z,48.8
2018-01-26T07:40:59.302Z,48.8
2018-01-26T07:42:00.643Z,48.8
2018-01-26T07:43:01.988Z,48.7
2018-01-26T07:44:03.981Z,48.7
2018-01-26T07:45:06.186Z,48.9
2018-01-26T07:46:08.361Z,48.7
2018-01-26T07:47:10.113Z,48.8
2018-01-26T07:48:11.544Z,48.7
2018-01-26T07:49:13.277Z,48.6
2018-01-26T07:50:15.243Z,48.7
2018-01-26T07:51:17.416Z,48.7
2018-01-26T07:52:19.244Z,48.7
2018-01-26T07:53:21.338Z,48.7
2018-01-26T07:54:22.665Z,48.6
2018-01-26T07:55:24.583Z,48.7
2018-01-26T07:56:26.300Z,48.7
2018-01-26T07:57:28.740Z,48.7
2018-01-26T07:58:30.295Z,48.7
2018-01-26T07:59:31.828Z,48.9
2018-01-26T08:00:33.466Z,48.7
2018-01-26T08:01:35.524Z,48.7
2018-01-26T08:02:37.885Z,49.1
2018-01-26T08:03:39.597Z,49.3
2018-01-26T08:04:41.352Z,49.2
2018-01-26T08:05:43.445Z,48.9
2018-01-26T08:06:45.401Z,49.3
2018-01-26T08:07:46.734Z,48.9
2018-01-26T08:08:49.032Z,49.1
2018-01-26T08:09:50.597Z,48.6
2018-01-26T08:10:52.081Z,49.2
2018-01-26T08:12:12.927Z,48.5
2018-01-26T08:13:14.972Z,48.6
2018-01-26T08:14:16.779Z,49.1
2018-01-26T08:15:18.732Z,49.1
2018-01-26T08:16:20.407Z,48.7
2018-01-26T08:17:22.648Z,48.7
2018-01-26T08:18:24.846Z,48.7
2018-01-26T08:19:26.495Z,48.7
2018-01-26T08:20:28.426Z,48.7
2018-01-26T08:21:30.189Z,48.6
2018-01-26T08:22:32.143Z,49.1
2018-01-26T08:23:33.668Z,48.7
2018-01-26T08:24:35.510Z,49.3
2018-01-26T08:25:36.583Z,48.8
2018-01-26T08:26:37.629Z,49.3
2018-01-26T08:27:39.250Z,48.8
2018-01-26T08:28:40.576Z,48.9
2018-01-26T08:29:42.202Z,48.9
2018-01-26T08:30:43.545Z,49.2
2018-01-26T08:31:44.891Z,49.3
2018-01-26T08:32:46.523Z,48.8
2018-01-26T08:33:48.146Z,48.9
2018-01-26T08:34:49.497Z,49.3
2018-01-26T08:35:51.119Z,49.3
2018-01-26T08:36:52.779Z,49.1
2018-01-26T08:37:54.407Z,49
2018-01-26T08:38:56.301Z,48.9
2018-01-26T08:39:57.925Z,49.1
2018-01-26T08:40:58.996Z,48.8
2018-01-26T08:42:00.093Z,49
2018-01-26T08:43:01.699Z,48.7
2018-01-26T08:44:03.373Z,48.8
2018-01-26T08:45:04.703Z,48.7
2018-01-26T08:46:06.600Z,48.7
2018-01-26T08:47:07.946Z,48.9
2018-01-26T08:48:09.299Z,49.1
2018-01-26T08:49:10.361Z,48.7
2018-01-26T08:50:11.962Z,49.2
2018-01-26T08:51:13.281Z,48.7
2018-01-26T08:52:14.907Z,49.1
2018-01-26T08:53:16.235Z,48.9
2018-01-26T08:54:17.565Z,48.7
2018-01-26T08:55:18.889Z,48.9
2018-01-26T08:56:20.233Z,48.9
2018-01-26T08:57:21.557Z,48.8
2018-01-26T08:58:22.619Z,49.1
2018-01-26T08:59:23.963Z,48.9
2018-01-26T09:00:25.653Z,48.9
2018-01-26T09:01:27.086Z,48.8
2018-01-26T09:02:28.787Z,48.9
2018-01-26T09:03:30.564Z,48.9
2018-01-26T09:04:32.578Z,49
2018-01-26T09:05:33.952Z,48.6
2018-01-26T09:06:35.596Z,48.6
2018-01-26T09:07:37.515Z,48.5
2018-01-26T09:08:38.835Z,49
2018-01-26T09:09:40.462Z,48.8
2018-01-26T09:10:42.366Z,49
2018-01-26T09:11:43.712Z,49.3
2018-01-26T09:12:45.358Z,48.8
2018-01-26T09:13:46.736Z,48.8
2018-01-26T09:14:48.359Z,49.1
2018-01-26T09:15:49.424Z,48.7
2018-01-26T09:16:50.774Z,48.7
2018-01-26T09:17:52.374Z,48.7
2018-01-26T09:18:53.984Z,48.7
2018-01-26T09:19:55.890Z,49.1
2018-01-26T09:20:57.800Z,48.8
2018-01-26T09:21:59.122Z,48.8
2018-01-26T09:23:01.028Z,48.8
2018-01-26T09:24:02.931Z,48.9
2018-01-26T09:25:04.591Z,48.8
2018-01-26T09:26:06.223Z,49
2018-01-26T09:27:07.274Z,48.7
2018-01-26T09:28:08.346Z,48.8
2018-01-26T09:29:09.417Z,48.7
2018-01-26T09:30:11.015Z,49.1
2018-01-26T09:31:12.428Z,48.9
2018-01-26T09:32:14.350Z,48.7
2018-01-26T09:33:15.951Z,48.6
2018-01-26T09:34:17.278Z,48.8
2018-01-26T09:35:19.174Z,49
2018-01-26T09:36:20.528Z,48.7
2018-01-26T09:37:22.146Z,48.7
2018-01-26T09:38:23.768Z,48.7
2018-01-26T09:39:24.810Z,48.6
2018-01-26T09:40:25.854Z,48.7
2018-01-26T09:41:27.473Z,48.7
2018-01-26T09:42:28.818Z,48.9
2018-01-26T09:43:30.490Z,48.8
2018-01-26T09:44:32.393Z,48.7
2018-01-26T09:45:33.456Z,49.2
2018-01-26T09:46:35.353Z,49.1
2018-01-26T09:47:36.954Z,49.1
2018-01-26T09:48:38.341Z,49.1
2018-01-26T09:49:39.973Z,49.8
2018-01-26T09:50:41.577Z,49.7
2018-01-26T09:51:43.551Z,49.4
2018-01-26T09:52:45.173Z,49.2
2018-01-26T09:53:46.514Z,49.6
2018-01-26T09:54:47.839Z,49.1
2018-01-26T09:55:49.460Z,49.3
2018-01-26T09:56:51.081Z,49.2
2018-01-26T09:57:52.712Z,49.1
2018-01-26T09:58:53.772Z,49.2
2018-01-26T09:59:55.112Z,49.5
2018-01-26T10:00:56.733Z,49.5
2018-01-26T10:01:57.782Z,49.5
2018-01-26T10:02:59.409Z,49.2
2018-01-26T10:04:01.030Z,48.9
2018-01-26T10:05:01.796Z,48.9
2018-01-26T10:06:02.837Z,48.8
2018-01-26T10:07:04.734Z,48.8
2018-01-26T10:08:06.056Z,48.9
2018-01-26T10:09:07.376Z,48.7
2018-01-26T10:10:09.274Z,48.9
2018-01-26T10:11:10.893Z,48.9
2018-01-26T10:12:12.802Z,49.2
2018-01-26T10:13:14.686Z,48.6
2018-01-26T10:14:16.029Z,48.9
2018-01-26T10:15:17.636Z,49.2
2018-01-26T10:16:19.534Z,48.6
2018-01-26T10:17:20.872Z,48.6
2018-01-26T10:18:22.217Z,48.9
2018-01-26T10:19:23.561Z,49.1
2018-01-26T10:20:24.882Z,48.7
2018-01-26T10:21:26.229Z,49
2018-01-26T10:22:28.128Z,48.7
2018-01-26T10:23:29.750Z,48.8
2018-01-26T10:24:31.370Z,49
2018-01-26T10:25:33.266Z,48.7
2018-01-26T10:26:35.167Z,48.7
2018-01-26T10:27:36.791Z,48.8
2018-01-26T10:28:38.412Z,48.8
2018-01-26T10:29:40.033Z,48.7
2018-01-26T10:30:41.931Z,48.7
2018-01-26T10:31:43.828Z,48.8
2018-01-26T10:32:45.461Z,49.1
2018-01-26T10:33:47.075Z,48.8
2018-01-26T10:34:48.397Z,48.7
2018-01-26T10:35:49.996Z,48.8
2018-01-26T10:36:51.596Z,48.9
2018-01-26T10:37:53.536Z,49
2018-01-26T10:38:55.136Z,48.7
2018-01-26T10:39:56.181Z,48.9
2018-01-26T10:40:57.801Z,49
2018-01-26T10:41:59.401Z,48.7
2018-01-26T10:43:01.299Z,48.7
2018-01-26T10:44:02.915Z,48.8
2018-01-26T10:45:04.534Z,48.6
2018-01-26T10:46:06.439Z,48.8
2018-01-26T10:47:07.777Z,48.8
2018-01-26T10:48:09.098Z,48.9
2018-01-26T10:49:10.418Z,48.8
2018-01-26T10:50:12.057Z,48.9
2018-01-26T10:51:13.945Z,48.7
2018-01-26T10:52:15.845Z,48.7
2018-01-26T10:53:16.909Z,48.7
2018-01-26T10:54:18.513Z,48.6
2018-01-26T10:55:20.501Z,48.8
2018-01-26T10:56:22.197Z,48.7
2018-01-26T10:57:22.986Z,48.7
2018-01-26T10:58:25.127Z,48.6
2018-01-26T10:59:26.870Z,48.6
2018-01-26T11:00:28.898Z,48.5
2018-01-26T11:01:30.308Z,48.6
2018-01-26T11:02:32.398Z,48.8
2018-01-26T11:03:34.295Z,48.6
2018-01-26T11:04:35.640Z,48.6
2018-01-26T11:05:37.258Z,48.8
2018-01-26T11:06:39.107Z,48.8
2018-01-26T11:07:40.672Z,48.6
2018-01-26T11:08:42.129Z,48.7
2018-01-26T11:09:43.871Z,48.7
2018-01-26T11:10:44.800Z,48.7
2018-01-26T11:11:46.656Z,48.7
2018-01-26T11:12:48.741Z,48.8
2018-01-26T11:13:49.780Z,48.7
2018-01-26T11:14:51.403Z,48.6
2018-01-26T11:15:53.249Z,48.7
2018-01-26T11:16:55.582Z,48.8
2018-01-26T11:17:57.373Z,48.9
2018-01-26T11:18:59.157Z,48.8
2018-01-26T11:20:01.143Z,48.7
2018-01-26T11:21:03.049Z,48.8
2018-01-26T11:22:04.159Z,48.7
2018-01-26T11:23:05.640Z,48.5
2018-01-26T11:24:07.403Z,48.7
2018-01-26T11:25:09.398Z,48.7
2018-01-26T11:26:11.007Z,49
2018-01-26T11:27:12.900Z,48.8
2018-01-26T11:28:15.190Z,48.8
2018-01-26T11:29:16.898Z,48.7
2018-01-26T11:30:18.952Z,48.7
2018-01-26T11:31:20.699Z,48.6
2018-01-26T11:32:22.341Z,48.4
2018-01-26T11:33:24.104Z,48.5
2018-01-26T11:34:25.267Z,48.6
2018-01-26T11:35:26.643Z,48.8
2018-01-26T11:36:28.021Z,48.4
2018-01-26T11:37:29.662Z,48.7
2018-01-26T11:38:30.908Z,48.5
2018-01-26T11:39:32.380Z,48.4
2018-01-26T11:40:33.849Z,48.4
2018-01-26T11:41:35.867Z,48.5
2018-01-26T11:42:37.724Z,48.8
2018-01-26T11:43:39.656Z,48.4
2018-01-26T11:44:41.100Z,48.7
2018-01-26T11:45:42.524Z,48.7
2018-01-26T11:46:43.941Z,48.4
2018-01-26T11:47:45.432Z,48.1
2018-01-26T11:48:47.171Z,48.3
2018-01-26T11:49:48.442Z,48.2
2018-01-26T11:50:49.996Z,48.1
2018-01-26T11:51:51.428Z,48.1
2018-01-26T11:52:52.921Z,48.2
2018-01-26T11:53:54.828Z,48.4
2018-01-26T11:54:56.265Z,48.4
2018-01-26T11:55:58.421Z,48.4
2018-01-26T11:56:59.545Z,48.4
2018-01-26T11:58:00.914Z,48.1
2018-01-26T11:59:02.905Z,48.1
2018-01-26T12:00:04.609Z,48.4
2018-01-26T12:01:06.359Z,48.5
2018-01-26T12:02:08.034Z,48.4
2018-01-26T12:03:09.404Z,47.7
2018-01-26T12:04:11.080Z,48.1
2018-01-26T12:05:12.437Z,48
2018-01-26T12:06:13.827Z,47.7
2018-01-26T12:07:15.279Z,48.1
2018-01-26T12:08:17.244Z,48
2018-01-26T12:09:19.002Z,48
2018-01-26T12:10:20.788Z,48.3
2018-01-26T12:11:22.248Z,48
2018-01-26T12:12:23.728Z,48.5
2018-01-26T12:13:25.376Z,48.3
2018-01-26T12:14:26.784Z,47.7
2018-01-26T12:15:28.418Z,48.5
2018-01-26T12:16:30.041Z,47.9
2018-01-26T12:17:31.673Z,48.1
2018-01-26T12:18:33.453Z,47.8
2018-01-26T12:19:35.077Z,47.9
2018-01-26T12:20:36.978Z,48.4
2018-01-26T12:21:38.046Z,47.8
2018-01-26T12:22:39.667Z,47.8
2018-01-26T12:23:41.009Z,48.4
2018-01-26T12:24:42.333Z,47.9
2018-01-26T12:25:43.957Z,48.4
2018-01-26T12:26:45.605Z,47.8
2018-01-26T12:27:47.003Z,48.4
2018-01-26T12:28:48.904Z,47.9
2018-01-26T12:29:50.501Z,48.2
2018-01-26T12:30:52.148Z,47.8
2018-01-26T12:31:54.128Z,47.9
2018-01-26T12:32:55.772Z,48.4
2018-01-26T12:33:57.433Z,48.4
2018-01-26T12:34:58.534Z,48
2018-01-26T12:36:00.152Z,48.6
2018-01-26T12:37:01.474Z,47.9
2018-01-26T12:38:03.096Z,47.9
2018-01-26T12:39:04.416Z,48.6
2018-01-26T12:40:06.045Z,48.6
2018-01-26T12:41:07.937Z,47.9
2018-01-26T12:42:09.534Z,47.9
2018-01-26T12:43:11.433Z,48.1
2018-01-26T12:44:13.033Z,48.4
2018-01-26T12:45:14.932Z,47.9
2018-01-26T12:46:16.831Z,48.3
2018-01-26T12:47:18.731Z,47.8
2018-01-26T12:48:20.077Z,48.4
2018-01-26T12:49:20.840Z,47.9
2018-01-26T12:50:22.437Z,48
2018-01-26T12:51:24.336Z,48.1
2018-01-26T12:52:25.953Z,48.4
2018-01-26T12:53:27.575Z,47.8
2018-01-26T12:54:29.172Z,48
2018-01-26T12:55:30.242Z,48.6
2018-01-26T12:56:31.866Z,47.7
2018-01-26T12:57:33.486Z,47.9
2018-01-26T12:58:35.104Z,48.4
2018-01-26T12:59:36.501Z,47.9
2018-01-26T13:00:38.122Z,48.5
2018-01-26T13:01:39.748Z,48
2018-01-26T13:02:41.068Z,47.9
2018-01-26T13:03:42.415Z,47.9
2018-01-26T13:04:44.013Z,48.1
2018-01-26T13:05:45.908Z,48.1
2018-01-26T13:06:47.535Z,48.4
2018-01-26T13:07:49.428Z,47.9
2018-01-26T13:08:51.048Z,47.8
2018-01-26T13:09:52.668Z,47.9
2018-01-26T13:10:54.014Z,48.5
2018-01-26T13:11:55.629Z,48.5
2018-01-26T13:12:56.952Z,48.3
2018-01-26T13:13:58.275Z,47.9
2018-01-26T13:14:59.944Z,48.2
2018-01-26T13:16:01.842Z,48.3
2018-01-26T13:17:03.164Z,48.3
2018-01-26T13:18:05.189Z,47.8
2018-01-26T13:19:06.952Z,47.9
2018-01-26T13:20:09.173Z,48.6
2018-01-26T13:21:11.116Z,47.8
2018-01-26T13:22:12.159Z,48.1
2018-01-26T13:23:14.055Z,48.3
2018-01-26T13:24:15.955Z,48.1
2018-01-26T13:25:17.278Z,48.4
2018-01-26T13:26:18.876Z,47.9
2018-01-26T13:27:20.235Z,48
2018-01-26T13:28:21.853Z,47.8
2018-01-26T13:29:23.470Z,48
2018-01-26T13:30:25.095Z,47.9
2018-01-26T13:31:26.714Z,47.8
2018-01-26T13:32:28.038Z,48.6
2018-01-26T13:33:29.383Z,47.9
2018-01-26T13:34:31.275Z,47.9
2018-01-26T13:35:32.897Z,48.4
2018-01-26T13:36:34.518Z,48
2018-01-26T13:37:35.859Z,47.9
2018-01-26T13:38:37.177Z,48.4
2018-01-26T13:39:38.523Z,48
2018-01-26T13:40:40.204Z,48.1
2018-01-26T13:41:41.847Z,48.4
2018-01-26T13:42:43.464Z,48.3
2018-01-26T13:43:45.365Z,48.2
2018-01-26T13:44:46.982Z,48.4
2018-01-26T13:45:48.302Z,47.9
2018-01-26T13:46:50.200Z,48.2